Latest Weather Observations for Ngukurr AWS

IDD60801

Issued at 5:21 pm CST Sunday 15 September 2019 (issued every 10 minutes, with the page automatically refreshed every 10 minutes)

About weather observations | Map of weather stations | Latest weather observations for NT | Other Formats
Station Details ID: 014299 Name: NGUKURR AIRPORT Lat: -14.72 Lon: 134.75 Height: 14.46 m
Data from the previous 72 hours. | See also: Recent months at Ngukurr AWS
Date/Time
CST
Temp
°C
App
Temp
°C
Dew
Point
°C
Rel
Hum
%
Delta-T
°C
Wind Press
QNH
hPa
Press
MSL
hPa
Rain since
9am
mm
Dir  Spd
km/h
Gust
km/h
Spd
kts
Gust
kts
15/05:00pm 31.6 27.1 5.9 20 13.7 E 19 30 10 16 1014.3 1014.2 0.0
15/04:30pm 32.3 26.3 3.3 16 14.9 E 24 35 13 19 1014.1 1014.0 0.0
15/04:24pm 32.0 25.0 2.1 15 15.0 E 28 50 15 27 1014.1 1014.0 0.0
15/04:00pm 31.7 24.8 2.8 16 14.6 ENE 28 39 15 21 1014.1 1014.0 0.0
15/03:30pm 32.5 26.3 4.3 17 14.7 E 26 43 14 23 1014.2 1014.1 0.0
15/03:00pm 32.9 27.7 5.5 18 14.6 E 22 35 12 19 1014.2 1014.1 0.0
15/02:30pm 33.5 28.2 6.7 19 14.6 E 24 35 13 19 1014.5 1014.4 0.0
15/02:11pm 32.7 25.7 1.7 14 15.5 E 28 48 15 26 1014.7 1014.6 0.0
15/02:00pm 32.7 25.8 2.7 15 15.3 E 28 43 15 23 1014.8 1014.7 0.0
15/01:30pm 33.4 27.3 5.0 17 15.1 E 26 39 14 21 1015.1 1015.0 0.0
15/01:00pm 32.8 27.1 6.9 20 14.1 E 26 41 14 22 1015.5 1015.4 0.0
15/12:30pm 32.5 27.7 8.7 23 13.3 ENE 24 41 13 22 1015.9 1015.8 0.0
15/12:00pm 32.2 27.7 8.4 23 13.2 E 22 33 12 18 1016.5 1016.4 0.0
15/11:30am 31.7 29.2 11.0 28 12.0 ENE 15 26 8 14 1017.1 1017.0 0.0
15/11:00am 30.7 28.0 11.6 31 11.1 ENE 17 28 9 15 1017.5 1017.4 0.0
15/10:30am 30.0 27.8 12.0 33 10.5 ENE 15 22 8 12 1017.6 1017.5 0.0
15/10:00am 28.4 26.5 11.9 36 9.6 ENE 13 22 7 12 1018.0 1017.9 0.0
15/09:30am 27.2 26.0 11.7 38 8.9 E 9 17 5 9 1018.5 1018.4 0.0
15/09:00am 25.6 25.2 12.4 43 7.6 SSE 6 7 3 4 1018.1 1018.0 0.0
15/08:30am 22.7 23.1 13.7 56 5.2 S 4 6 2 3 1018.0 1017.9 0.0
15/08:00am 20.6 21.6 14.3 67 3.7 SE 2 4 1 2 1017.8 1017.7 0.0
15/07:30am 17.8 19.0 13.7 77 2.3 CALM 0 0 0 0 1017.5 1017.4 0.0
15/07:00am 14.9 15.8 12.8 87 1.2 CALM 0 0 0 0 1017.4 1017.3 0.0
15/06:30am 13.6 14.1 11.7 88 1.0 CALM 0 0 0 0 1017.0 1016.9 0.0
15/06:00am 13.4 13.1 11.5 88 1.0 SSW 4 4 2 2 1016.7 1016.6 0.0
15/05:30am 13.9 14.6 12.3 90 0.9 CALM 0 0 0 0 1016.5 1016.4 0.0
15/05:00am 14.6 15.3 12.3 86 1.3 CALM 0 0 0 0 1016.2 1016.1 0.0
15/04:30am 14.4 14.7 10.8 79 1.9 CALM 0 0 0 0 1016.1 1016.0 0.0
15/04:00am 14.8 14.9 11.6 81 1.7 WNW 2 2 1 1 1016.0 1015.9 0.0
15/03:30am 14.8 15.2 11.2 79 1.9 CALM 0 0 0 0 1016.0 1015.9 0.0
15/03:00am 15.6 15.3 11.4 76 2.3 NNW 4 6 2 3 1016.2 1016.1 0.0
15/02:30am 16.1 16.9 12.7 80 1.9 CALM 0 0 0 0 1016.6 1016.5 0.0
15/02:00am 16.6 17.5 12.8 78 2.1 CALM 0 0 0 0 1016.8 1016.7 0.0
15/01:30am 17.3 18.1 12.4 73 2.7 CALM 0 0 0 0 1016.9 1016.8 0.0
15/01:00am 18.6 19.8 13.7 73 2.8 CALM 0 0 0 0 1017.1 1017.0 0.0
15/12:30am 18.6 19.7 13.5 72 2.9 CALM 0 0 0 0 1017.5 1017.4 0.0
15/12:00am 19.3 20.7 14.3 73 2.9 CALM 0 0 0 0 1017.8 1017.7 0.0
 
Date/Time
CST
Temp
°C
App
Temp
°C
Dew
Point
°C
Rel
Hum
%
Delta-T
°C
Wind Press
QNH
hPa
Press
MSL
hPa
Rain since
9am
mm
Dir  Spd
km/h
Gust
km/h
Spd
kts
Gust
kts
14/11:30pm 19.9 20.6 14.5 71 3.1 ENE 4 6 2 3 1017.9 1017.8 0.0
14/11:00pm 20.2 21.0 13.6 66 3.8 E 2 4 1 2 1017.9 1017.8 0.0
14/10:30pm 22.0 22.5 13.9 60 4.7 ENE 4 7 2 4 1017.9 1017.8 0.0
14/10:00pm 22.3 22.2 13.9 59 4.9 NE 7 11 4 6 1017.9 1017.8 0.0
14/09:30pm 22.6 22.2 14.2 59 4.9 NE 9 13 5 7 1017.9 1017.8 0.0
14/09:00pm 23.2 22.6 13.4 54 5.7 NE 9 15 5 8 1018.0 1017.9 0.0
14/08:30pm 23.9 23.4 12.8 49 6.4 ENE 7 13 4 7 1017.9 1017.8 0.0
14/08:00pm 24.6 22.9 11.2 43 7.5 ENE 11 17 6 9 1017.7 1017.6 0.0
14/07:30pm 25.4 22.1 9.7 37 8.6 E 17 26 9 14 1017.3 1017.2 0.0
14/07:00pm 26.0 24.4 13.8 47 7.2 E 15 22 8 12 1016.9 1016.8 0.0
14/06:30pm 27.1 25.0 12.3 39 8.6 E 15 20 8 11 1016.3 1016.2 0.0
14/06:00pm 28.5 24.4 8.7 29 10.9 E 20 28 11 15 1016.0 1015.9 0.0
14/05:30pm 29.7 23.8 5.7 22 12.6 E 26 39 14 21 1015.7 1015.6 0.0
14/05:00pm 30.6 23.4 1.0 15 14.4 E 28 39 15 21 1015.4 1015.3 0.0
14/04:30pm 31.6 24.7 -0.1 13 15.3 E 26 39 14 21 1015.2 1015.1 0.0
14/04:00pm 31.7 24.2 1.0 14 15.1 E 30 43 16 23 1015.2 1015.1 0.0
14/03:30pm 32.1 25.1 2.2 15 15.0 E 28 41 15 22 1015.0 1014.9 0.0
14/03:00pm 32.9 26.6 3.8 16 15.1 ESE 26 43 14 23 1015.2 1015.1 0.0
14/02:37pm 32.4 25.7 3.4 16 14.9 E 28 48 15 26 1015.2 1015.1 0.0
14/02:30pm 32.8 26.1 3.7 16 15.0 E 28 43 15 23 1015.4 1015.3 0.0
14/02:00pm 33.1 27.0 4.8 17 14.9 E 26 41 14 22 1015.8 1015.7 0.0
14/01:42pm 32.6 25.7 2.6 15 15.2 ENE 28 48 15 26 1016.1 1016.0 0.0
14/01:30pm 32.1 26.4 4.8 18 14.3 ENE 24 41 13 22 1016.4 1016.3 0.0
14/01:15pm 31.7 25.2 6.7 21 13.5 E 30 48 16 26 1016.6 1016.5 0.0
14/01:00pm 32.1 25.8 5.6 19 14.1 ENE 28 44 15 24 1017.0 1016.9 0.0
14/12:30pm 31.8 25.0 5.3 19 14.0 E 30 44 16 24 1017.3 1017.2 0.0
14/12:00pm 32.0 24.9 5.5 19 14.0 ENE 32 50 17 27 1017.7 1017.6 0.0
14/11:30am 32.1 25.6 4.8 18 14.3 E 28 41 15 22 1018.0 1017.9 0.0
14/11:00am 31.4 26.1 5.0 19 13.8 E 22 35 12 19 1018.4 1018.3 0.0
14/10:30am 30.2 26.4 9.1 27 11.7 E 19 28 10 15 1018.9 1018.8 0.0
14/10:00am 29.2 26.4 9.9 30 10.9 ESE 15 22 8 12 1019.4 1019.3 0.0
14/09:30am 27.6 26.4 11.6 37 9.2 SE 9 17 5 9 1019.5 1019.4 0.0
14/09:00am 25.7 26.6 16.0 55 5.9 ESE 6 7 3 4 1019.7 1019.6 0.0
14/08:30am 23.4 24.7 17.2 68 3.8 SE 6 9 3 5 1019.6 1019.5 0.0
14/08:00am 21.4 23.5 18.2 82 2.0 SE 4 7 2 4 1019.5 1019.4 0.0
14/07:30am 18.6 21.5 18.3 98 0.2 CALM 0 0 0 0 1019.2 1019.1 0.0
14/07:00am 15.8 17.6 15.5 98 0.2 CALM 0 0 0 0 1018.9 1018.8 0.0
14/06:30am 15.3 16.9 15.0 98 0.2 CALM 0 0 0 0 1018.4 1018.3 0.0
14/06:00am 15.9 17.7 15.6 98 0.2 CALM 0 0 0 0 1018.2 1018.1 0.0
14/05:30am 16.5 18.6 16.2 98 0.2 CALM 0 0 0 0 1018.2 1018.1 0.0
14/05:00am 16.6 18.7 16.3 98 0.2 CALM 0 0 0 0 1017.9 1017.8 0.0
14/04:30am 16.5 17.8 16.2 98 0.2 S 4 4 2 2 1017.9 1017.8 0.0
14/04:00am 17.2 18.8 16.9 98 0.2 S 4 6 2 3 1017.5 1017.4 0.0
14/03:30am 17.2 18.4 16.9 98 0.2 S 6 6 3 3 1017.3 1017.2 0.0
14/03:00am 17.3 19.2 15.8 91 0.9 CALM 0 0 0 0 1017.4 1017.3 0.0
14/02:30am 18.4 20.7 17.6 95 0.5 SSE 2 2 1 1 1017.4 1017.3 0.0
14/02:00am 18.9 21.2 16.7 87 1.3 CALM 0 0 0 0 1017.7 1017.6 0.0
14/01:30am 20.5 22.3 17.5 83 1.8 NE 4 4 2 2 1018.0 1017.9 0.0
14/01:00am 20.8 23.1 17.6 82 2.0 NE 2 6 1 3 1018.2 1018.1 0.0
14/12:30am 21.3 23.6 18.5 84 1.7 NE 4 7 2 4 1018.3 1018.2 0.0
14/12:00am 21.2 23.6 18.8 86 1.5 ENE 4 6 2 3 1018.9 1018.8 0.0
 
Date/Time
CST
Temp
°C
App
Temp
°C
Dew
Point
°C
Rel
Hum
%
Delta-T
°C
Wind Press
QNH
hPa
Press
MSL
hPa
Rain since
9am
mm
Dir  Spd
km/h
Gust
km/h
Spd
kts
Gust
kts
13/11:30pm 21.7 23.8 18.9 84 1.8 ENE 6 9 3 5 1018.9 1018.8 0.0
13/11:00pm 22.0 24.0 18.8 82 2.0 ENE 6 9 3 5 1018.7 1018.6 0.0
13/10:30pm 22.5 24.7 19.1 81 2.2 NE 6 9 3 5 1018.8 1018.7 0.0
13/10:00pm 22.9 24.5 19.1 79 2.4 ENE 9 15 5 8 1018.8 1018.7 0.0
13/09:30pm 23.2 23.9 18.9 77 2.7 ENE 13 19 7 10 1018.8 1018.7 0.0
13/09:00pm 23.5 23.1 18.8 75 3.0 ENE 19 28 10 15 1018.6 1018.5 0.0
13/08:30pm 23.7 23.8 18.4 72 3.3 E 15 26 8 14 1018.2 1018.1 0.0
13/08:00pm 24.2 23.7 17.7 67 4.1 E 17 26 9 14 1017.8 1017.7 0.0
13/07:30pm 24.9 23.5 16.6 60 5.1 E 19 28 10 15 1017.3 1017.2 0.0
13/07:00pm 26.1 23.3 12.5 42 7.9 E 19 28 10 15 1016.7 1016.6 0.0
13/06:30pm 27.4 22.9 6.8 27 10.9 ENE 20 32 11 17 1016.2 1016.1 0.0
13/06:00pm 28.5 24.0 6.0 24 11.8 E 19 28 10 15 1015.8 1015.7 0.0
13/05:30pm 29.5 24.6 4.2 20 12.9 ENE 19 32 10 17 1015.7 1015.6 0.0
13/05:00pm 30.3 25.2 4.1 19 13.5 E 20 32 11 17 1015.5 1015.4 0.0
13/04:30pm 31.0 25.3 3.1 17 14.1 E 22 33 12 18 1015.4 1015.3 0.0
13/04:00pm 31.1 25.5 3.2 17 14.2 E 22 35 12 19 1015.4 1015.3 0.0
13/03:30pm 31.7 25.9 4.5 18 14.2 ENE 24 35 13 19 1015.4 1015.3 0.0
13/03:00pm 31.9 26.2 3.0 16 14.7 ENE 22 39 12 21 1015.6 1015.5 0.0
13/02:30pm 32.0 26.7 2.1 15 15.0 E 19 28 10 15 1016.0 1015.9 0.0
13/02:00pm 32.2 25.4 3.2 16 14.8 ENE 28 39 15 21 1016.4 1016.3 0.0
13/01:30pm 32.4 25.7 1.5 14 15.4 ENE 26 41 14 22 1016.8 1016.7 0.0
13/01:07pm 32.0 25.3 3.9 17 14.5 ENE 28 48 15 26 1017.1 1017.0 0.0
13/01:00pm 32.4 25.3 1.5 14 15.4 ENE 28 43 15 23 1017.3 1017.2 0.0
13/12:30pm 32.7 27.0 0.7 13 15.7 ESE 20 32 11 17 1017.8 1017.7 0.0
13/12:00pm 32.8 27.1 0.8 13 15.8 E 20 32 11 17 1018.3 1018.2 0.0
13/11:30am 31.4 25.5 1.7 15 14.7 ESE 22 35 12 19 1018.7 1018.6 0.0
13/11:00am 31.1 26.0 4.0 18 14.0 E 20 30 11 16 1019.2 1019.1 0.0
13/10:30am 30.5 27.1 7.7 24 12.4 E 15 26 8 14 1019.7 1019.6 0.0
13/10:00am 28.9 27.4 10.6 32 10.4 ESE 9 20 5 11 1019.9 1019.8 0.0
13/09:30am 26.6 26.9 14.4 47 7.3 ESE 6 11 3 6 1020.1 1020.0 0.0
13/09:00am 24.2 24.8 15.7 59 5.1 S 7 11 4 6 1020.3 1020.2 0.0
13/08:30am 21.9 23.4 17.7 77 2.6 SSE 6 7 3 4 1020.3 1020.2 0.0
13/08:00am 19.3 21.8 18.1 93 0.7 NNW 2 4 1 2 1020.2 1020.1 0.0
13/07:30am 17.1 18.7 16.8 98 0.2 WNW 4 6 2 3 1019.8 1019.7 0.0
13/07:00am 14.9 16.0 14.6 98 0.2 W 2 4 1 2 1019.5 1019.4 0.0
13/06:30am 14.2 15.4 13.7 97 0.3 CALM 0 0 0 0 1019.2 1019.1 0.0
13/06:00am 14.5 15.8 14.2 98 0.2 CALM 0 0 0 0 1018.8 1018.7 0.0
13/05:30am 15.0 16.5 14.7 98 0.2 CALM 0 0 0 0 1018.5 1018.4 0.0
13/05:00am 15.3 16.9 15.0 98 0.2 CALM 0 0 0 0 1018.3 1018.2 0.0
13/04:30am 15.7 17.5 15.4 98 0.2 CALM 0 0 0 0 1018.0 1017.9 0.0
13/04:00am 16.3 18.3 16.0 98 0.2 CALM 0 0 0 0 1017.7 1017.6 0.0
13/03:30am 17.1 18.7 16.8 98 0.2 S 4 6 2 3 1017.7 1017.6 0.0
13/03:00am 17.4 19.1 17.1 98 0.2 S 4 4 2 2 1017.6 1017.5 0.0
13/02:30am 17.3 18.7 16.5 95 0.5 SE 4 4 2 2 1017.7 1017.6 0.0
13/02:00am 17.8 19.6 16.5 92 0.8 ESE 2 4 1 2 1017.9 1017.8 0.0
13/01:30am 18.6 20.1 16.6 88 1.2 ENE 4 4 2 2 1018.0 1017.9 0.0
13/01:00am 19.7 21.2 17.5 87 1.3 NE 6 6 3 3 1018.1 1018.0 0.0
13/12:30am 19.8 21.1 17.2 85 1.6 ENE 6 6 3 3 1018.5 1018.4 0.0
13/12:00am 20.2 21.9 17.2 83 1.8 E 4 6 2 3 1018.7 1018.6 0.0
 
Date/Time
CST
Temp
°C
App
Temp
°C
Dew
Point
°C
Rel
Hum
%
Delta-T
°C
Wind Press
QNH
hPa
Press
MSL
hPa
Rain since
9am
mm
Dir  Spd
km/h
Gust
km/h
Spd
kts
Gust
kts
12/11:30pm 20.8 22.1 17.2 80 2.2 ENE 6 7 3 4 1019.0 1018.9 0.0
12/11:00pm 21.0 22.3 17.0 78 2.4 ENE 6 7 3 4 1019.0 1018.9 0.0
12/10:30pm 21.7 22.8 17.1 75 2.8 ENE 7 13 4 7 1019.2 1019.1 0.0
12/10:00pm 22.1 22.7 16.8 72 3.2 ENE 9 13 5 7 1019.3 1019.2 0.0
12/09:30pm 22.5 23.1 16.8 70 3.5 E 9 13 5 7 1019.2 1019.1 0.0
12/09:00pm 22.9 23.5 16.9 69 3.7 ENE 9 13 5 7 1018.9 1018.8 0.0
12/08:30pm 23.3 24.1 17.3 69 3.7 E 9 15 5 8 1018.7 1018.6 0.0
12/08:00pm 23.6 23.6 17.1 67 4.0 E 13 20 7 11 1018.2 1018.1 0.0
12/07:30pm 24.3 23.8 16.8 63 4.6 E 15 19 8 10 1017.9 1017.8 0.0
12/07:00pm 25.4 23.2 14.5 51 6.5 E 19 26 10 14 1017.5 1017.4 0.0
12/06:30pm 27.1 23.4 6.5 27 10.8 E 15 24 8 13 1017.0 1016.9 0.0
12/06:00pm 28.4 22.9 1.8 18 12.9 E 20 30 11 16 1016.7 1016.6 0.0
12/05:30pm 29.5 23.5 1.1 16 13.8 E 22 30 12 16 1016.5 1016.4 0.0

Other formats

Comma delimited format used in spreadsheet applications
http://www.bom.gov.au/fwo/IDD60801/IDD60801.94106.axf

JavaScript Object Notation format (JSON) in row-major order
http://www.bom.gov.au/fwo/IDD60801/IDD60801.94106.json

Data quality

Most of these data are generated automatically and are frequently updated. Quality checks on data are not normally performed. It is possible for incorrect values to appear. Refer to information at About Latest Weather Observations and please check the disclaimer before using these data.